createdAt,value
2023-01-22T00:01:09.193Z,36.50
2023-01-22T00:03:37.972Z,39.13
2023-01-22T00:06:05.589Z,36.45
2023-01-22T00:08:33.441Z,41.33
2023-01-22T00:11:00.379Z,43.33
2023-01-22T00:13:28.126Z,40.10
2023-01-22T00:15:58.168Z,42.70
2023-01-22T00:18:25.565Z,40.33
2023-01-22T00:20:54.294Z,38.45
2023-01-22T00:23:21.660Z,40.67
2023-01-22T00:25:48.514Z,37.10
2023-01-22T00:28:16.906Z,35.70
2023-01-22T00:30:43.986Z,39.05
2023-01-22T00:33:11.224Z,41.42
2023-01-22T00:35:39.796Z,42.42
2023-01-22T00:38:07.157Z,42.97
2023-01-22T00:40:34.259Z,41.70
2023-01-22T00:43:01.366Z,37.28
2023-01-22T00:45:28.088Z,36.88
2023-01-22T00:47:55.986Z,43.35
2023-01-22T00:50:22.787Z,41.05
2023-01-22T00:52:49.530Z,38.85
2023-01-22T00:55:16.310Z,37.30
2023-01-22T00:57:43.051Z,37.90
2023-01-22T01:00:11.845Z,40.75
2023-01-22T01:02:58.704Z,40.03
2023-01-22T01:05:25.502Z,39.70
2023-01-22T01:07:55.236Z,40.85
2023-01-22T01:10:21.974Z,41.70
2023-01-22T01:12:48.725Z,38.38
2023-01-22T01:15:15.790Z,41.40
2023-01-22T01:17:43.202Z,38.35
2023-01-22T01:20:12.615Z,37.65
2023-01-22T01:22:39.606Z,44.47
2023-01-22T01:25:06.604Z,39.47
2023-01-22T01:27:33.376Z,39.97
2023-01-22T01:30:02.323Z,39.42
2023-01-22T01:32:29.035Z,40.95
2023-01-22T01:34:55.775Z,39.33
2023-01-22T01:37:22.576Z,38.28
2023-01-22T01:40:02.928Z,38.22
2023-01-22T01:42:36.179Z,38.53
2023-01-22T01:45:26.324Z,34.45
2023-01-22T01:48:31.657Z,42.85
2023-01-22T01:51:10.840Z,38.85
2023-01-22T01:53:40.373Z,37.47
2023-01-22T01:56:14.066Z,33.40
2023-01-22T02:01:14.265Z,29.75
2023-01-22T02:03:41.636Z,31.27
2023-01-22T02:06:13.809Z,27.33
2023-01-22T02:08:45.057Z,31.95
2023-01-22T02:11:12.318Z,29.50
2023-01-22T02:13:54.335Z,24.08
2023-01-22T02:16:21.224Z,29.83
2023-01-22T02:18:50.457Z,31.27
2023-01-22T02:21:32.704Z,31.23
2023-01-22T02:24:00.256Z,30.00
2023-01-22T02:26:29.995Z,29.60
2023-01-22T02:28:56.765Z,31.58
2023-01-22T02:31:27.225Z,31.38
2023-01-22T02:33:57.623Z,30.40
2023-01-22T02:36:25.836Z,30.73
2023-01-22T02:38:56.734Z,29.05
2023-01-22T02:41:23.899Z,30.88
2023-01-22T02:43:50.652Z,31.15
2023-01-22T02:46:20.627Z,27.70
2023-01-22T02:48:48.366Z,28.75
2023-01-22T02:51:15.221Z,25.92
2023-01-22T02:53:43.496Z,31.73
2023-01-22T02:56:14.774Z,27.75
2023-01-22T02:58:41.553Z,31.58
2023-01-22T03:01:18.845Z,28.35
2023-01-22T03:03:49.233Z,26.63
2023-01-22T03:06:16.403Z,28.55
2023-01-22T03:08:45.968Z,29.98
2023-01-22T03:11:12.722Z,28.88
2023-01-22T03:13:58.466Z,30.25
2023-01-22T03:16:45.610Z,28.17
2023-01-22T03:19:57.463Z,31.75
2023-01-22T03:22:28.443Z,25.63
2023-01-22T03:25:03.034Z,29.50
2023-01-22T03:28:00.539Z,29.77
2023-01-22T03:30:30.695Z,28.45
2023-01-22T03:32:59.939Z,28.52
2023-01-22T03:35:26.886Z,29.00
2023-01-22T03:37:53.578Z,30.48
2023-01-22T03:40:20.265Z,29.63
2023-01-22T03:42:48.025Z,27.38
2023-01-22T03:45:14.840Z,25.05
2023-01-22T03:47:41.744Z,28.05
2023-01-22T03:50:09.130Z,28.48
2023-01-22T03:52:35.902Z,29.50
2023-01-22T03:55:06.380Z,26.67
2023-01-22T03:57:33.111Z,26.63
2023-01-22T04:00:02.156Z,26.67
2023-01-22T04:02:29.141Z,28.15
2023-01-22T04:04:56.723Z,29.52
2023-01-22T04:07:23.478Z,32.85
2023-01-22T04:09:51.195Z,29.45
2023-01-22T04:12:22.143Z,29.77
2023-01-22T04:14:49.943Z,30.45
2023-01-22T04:17:16.682Z,28.77
2023-01-22T04:19:44.414Z,31.88
2023-01-22T04:22:15.464Z,29.17
2023-01-22T04:24:42.203Z,28.05
2023-01-22T04:27:09.151Z,27.67
2023-01-22T04:29:36.919Z,26.58
2023-01-22T04:32:06.411Z,27.05
2023-01-22T04:34:33.139Z,27.67
2023-01-22T04:37:00.152Z,35.30
2023-01-22T04:39:27.238Z,31.55
2023-01-22T04:41:53.936Z,28.05
2023-01-22T04:44:22.061Z,30.63
2023-01-22T04:46:49.937Z,30.40
2023-01-22T04:49:16.753Z,28.60
2023-01-22T04:51:43.695Z,28.65
2023-01-22T04:54:10.407Z,28.80
2023-01-22T04:56:37.609Z,29.05
2023-01-22T04:59:04.291Z,29.40
2023-01-22T05:01:31.063Z,30.33
2023-01-22T05:04:04.941Z,33.60
2023-01-22T05:06:31.807Z,31.15
2023-01-22T05:08:59.929Z,30.58
2023-01-22T05:11:26.835Z,29.92
2023-01-22T05:13:54.351Z,34.45
2023-01-22T05:16:24.106Z,31.42
2023-01-22T05:18:50.810Z,32.45
2023-01-22T05:21:18.779Z,30.08
2023-01-22T05:23:45.964Z,30.05
2023-01-22T05:26:12.787Z,34.92
2023-01-22T05:28:40.658Z,32.70
2023-01-22T05:31:07.917Z,30.85
2023-01-22T05:33:35.199Z,31.48
2023-01-22T05:36:03.107Z,31.13
2023-01-22T05:38:32.155Z,34.20
2023-01-22T05:40:58.934Z,34.45
2023-01-22T05:43:25.802Z,31.85
2023-01-22T05:45:52.879Z,30.02
2023-01-22T05:48:19.733Z,31.30
2023-01-22T05:50:46.619Z,33.80
2023-01-22T05:53:20.205Z,33.03
2023-01-22T05:55:48.058Z,32.42
2023-01-22T05:58:14.998Z,29.45
2023-01-22T06:00:42.759Z,32.88
2023-01-22T06:03:11.169Z,31.45
2023-01-22T06:05:39.421Z,33.30
2023-01-22T06:08:06.244Z,31.65
2023-01-22T06:10:33.112Z,35.63
2023-01-22T06:12:59.774Z,32.20
2023-01-22T06:15:26.533Z,37.05
2023-01-22T06:17:56.275Z,28.40
2023-01-22T06:20:23.562Z,33.00
2023-01-22T06:22:54.105Z,28.80
2023-01-22T06:25:21.585Z,34.92
2023-01-22T06:27:48.809Z,32.35
2023-01-22T06:30:17.657Z,35.83
2023-01-22T06:32:47.120Z,32.83
2023-01-22T06:35:16.113Z,31.95
2023-01-22T06:37:43.532Z,34.15
2023-01-22T06:40:12.982Z,34.58
2023-01-22T06:42:41.212Z,31.63
2023-01-22T06:45:09.461Z,29.52
2023-01-22T06:47:37.651Z,31.30
2023-01-22T06:50:08.167Z,29.23
2023-01-22T06:52:34.874Z,31.55
2023-01-22T06:55:01.696Z,33.25
2023-01-22T06:57:28.746Z,30.88
2023-01-22T06:59:56.513Z,31.35
2023-01-22T07:02:23.191Z,28.98
2023-01-22T07:04:49.919Z,31.77
2023-01-22T07:07:17.043Z,31.15
2023-01-22T07:09:46.596Z,35.35
2023-01-22T07:12:14.902Z,30.35
2023-01-22T07:14:50.579Z,29.42
2023-01-22T07:17:20.571Z,31.65
2023-01-22T07:19:49.201Z,27.73
2023-01-22T07:22:16.977Z,30.70
2023-01-22T07:24:43.753Z,28.95
2023-01-22T07:27:13.537Z,32.55
2023-01-22T07:29:40.917Z,28.63
2023-01-22T07:32:15.848Z,36.15
2023-01-22T07:35:15.953Z,32.28
2023-01-22T07:40:36.576Z,29.58
2023-01-22T07:46:10.984Z,30.60
2023-01-22T08:00:40.223Z,25.20
2023-01-22T08:25:25.746Z,23.70
2023-01-22T08:28:10.853Z,32.90
2023-01-22T08:30:47.008Z,23.55
2023-01-22T08:36:06.524Z,24.00
2023-01-22T08:38:40.831Z,25.65
2023-01-22T08:55:08.999Z,22.35
2023-01-22T08:57:44.028Z,20.13
2023-01-22T09:05:45.375Z,26.05
2023-01-22T09:11:17.526Z,22.20
2023-01-22T09:13:52.505Z,17.95
2023-01-22T09:16:26.200Z,25.42
2023-01-22T09:22:11.675Z,23.75
2023-01-22T09:24:41.985Z,25.73
2023-01-22T09:27:23.446Z,22.02
2023-01-22T09:30:09.768Z,24.60
2023-01-22T09:32:43.754Z,28.98
2023-01-22T09:37:37.343Z,23.23
2023-01-22T09:40:04.802Z,25.63
2023-01-22T09:42:37.243Z,23.45
2023-01-22T09:45:11.556Z,24.48
2023-01-22T09:47:48.795Z,23.02
2023-01-22T09:50:24.356Z,20.80
2023-01-22T09:52:57.591Z,23.67
2023-01-22T09:55:30.784Z,25.08
2023-01-22T09:58:01.728Z,21.97
2023-01-22T10:00:42.268Z,24.15
2023-01-22T10:03:27.354Z,23.48
2023-01-22T10:06:00.751Z,26.02
2023-01-22T10:09:11.994Z,28.23
2023-01-22T10:11:39.301Z,24.23
2023-01-22T10:14:16.071Z,26.98
2023-01-22T10:16:45.505Z,21.45
2023-01-22T10:19:27.610Z,21.05
2023-01-22T10:22:02.432Z,26.98
2023-01-22T10:24:30.410Z,27.58
2023-01-22T10:26:59.004Z,38.67
2023-01-22T10:29:37.292Z,32.05
2023-01-22T10:32:21.421Z,26.77
2023-01-22T10:35:06.302Z,25.75
2023-01-22T10:37:51.883Z,24.42
2023-01-22T10:40:38.100Z,22.73
2023-01-22T10:43:18.494Z,28.85
2023-01-22T10:45:51.430Z,30.63
2023-01-22T10:48:18.637Z,25.60
2023-01-22T10:50:46.599Z,27.42
2023-01-22T10:53:31.894Z,24.52
2023-01-22T10:56:01.573Z,27.27
2023-01-22T10:58:33.106Z,25.13
2023-01-22T11:01:06.786Z,29.65
2023-01-22T11:03:38.620Z,28.05
2023-01-22T11:06:34.022Z,25.98
2023-01-22T11:09:34.147Z,21.17
2023-01-22T11:12:26.110Z,22.00
2023-01-22T11:15:25.808Z,26.33
2023-01-22T11:17:57.353Z,21.85
2023-01-22T11:20:45.485Z,21.23
2023-01-22T11:23:41.720Z,22.08
2023-01-22T11:26:23.790Z,25.75
2023-01-22T11:29:08.744Z,22.25
2023-01-22T11:31:59.626Z,25.45
2023-01-22T11:34:42.804Z,22.17
2023-01-22T11:37:28.782Z,21.67
2023-01-22T11:40:18.898Z,24.60
2023-01-22T11:43:13.887Z,25.75
2023-01-22T11:46:20.150Z,26.77
2023-01-22T11:49:05.133Z,25.50
2023-01-22T11:51:53.710Z,24.33
2023-01-22T11:54:43.046Z,25.08
2023-01-22T11:57:32.114Z,29.15
2023-01-22T12:00:20.715Z,21.23
2023-01-22T12:03:07.455Z,19.38
2023-01-22T12:06:13.114Z,19.52
2023-01-22T12:08:56.215Z,20.48
2023-01-22T12:12:01.260Z,19.73
2023-01-22T12:17:35.991Z,21.83
2023-01-22T12:20:26.984Z,25.00
2023-01-22T12:23:02.701Z,25.70
2023-01-22T12:25:55.284Z,24.08
2023-01-22T12:28:29.667Z,26.40
2023-01-22T12:31:03.591Z,25.58
2023-01-22T12:36:02.632Z,25.25
2023-01-22T12:38:36.400Z,25.17
2023-01-22T12:41:22.162Z,28.27
2023-01-22T12:43:57.999Z,25.02
2023-01-22T12:46:39.076Z,25.58
2023-01-22T12:49:11.302Z,28.55
2023-01-22T12:51:50.136Z,25.40
2023-01-22T12:54:36.493Z,28.08
2023-01-22T12:57:24.286Z,25.92
2023-01-22T12:59:54.409Z,27.20
2023-01-22T13:02:43.903Z,25.33
2023-01-22T13:05:25.986Z,26.77
2023-01-22T13:08:34.081Z,32.40
2023-01-22T13:11:04.605Z,28.00
2023-01-22T13:13:50.740Z,30.38
2023-01-22T13:16:20.789Z,26.23
2023-01-22T13:18:55.798Z,23.65
2023-01-22T13:21:31.151Z,26.02
2023-01-22T13:24:01.358Z,24.40
2023-01-22T13:26:31.592Z,31.70
2023-01-22T13:29:05.654Z,34.17
2023-01-22T13:34:10.558Z,29.63
2023-01-22T13:36:39.995Z,28.73
2023-01-22T13:39:06.891Z,26.80
2023-01-22T13:41:36.742Z,27.80
2023-01-22T13:44:05.544Z,25.70
2023-01-22T13:46:36.218Z,26.00
2023-01-22T13:49:12.198Z,26.33
2023-01-22T13:51:41.253Z,27.45
2023-01-22T13:54:18.336Z,27.88
2023-01-22T13:56:45.220Z,27.85
2023-01-22T13:59:19.661Z,27.67
2023-01-22T14:01:47.129Z,26.88
2023-01-22T14:04:35.492Z,28.33
2023-01-22T14:07:02.312Z,27.70
2023-01-22T14:09:40.515Z,27.90
2023-01-22T14:12:15.461Z,29.50
2023-01-22T14:14:43.499Z,29.08
2023-01-22T14:17:31.184Z,27.02
2023-01-22T14:20:07.438Z,27.80
2023-01-22T14:22:34.194Z,27.77
2023-01-22T14:25:01.413Z,27.73
2023-01-22T14:27:46.684Z,25.58
2023-01-22T14:30:16.639Z,30.20
2023-01-22T14:32:44.593Z,28.10
2023-01-22T14:35:20.170Z,30.83
2023-01-22T14:37:47.761Z,32.28
2023-01-22T14:40:17.119Z,33.00
2023-01-22T14:42:44.124Z,29.10
2023-01-22T14:45:11.641Z,25.90
2023-01-22T14:47:38.551Z,35.40
2023-01-22T14:50:07.121Z,31.35
2023-01-22T14:52:33.888Z,28.33
2023-01-22T14:55:00.742Z,30.27
2023-01-22T14:57:27.513Z,29.00
2023-01-22T14:59:54.347Z,31.98
2023-01-22T15:02:21.278Z,33.72
2023-01-22T15:04:48.713Z,32.72
2023-01-22T15:07:15.806Z,31.80
2023-01-22T15:09:43.843Z,28.73
2023-01-22T15:12:11.029Z,31.55
2023-01-22T15:14:37.889Z,29.02
2023-01-22T15:17:04.813Z,29.58
2023-01-22T15:19:40.708Z,36.70
2023-01-22T15:22:08.274Z,40.85
2023-01-22T15:24:35.370Z,50.67
2023-01-22T15:27:02.167Z,51.97
2023-01-22T15:29:28.899Z,48.47
2023-01-22T15:31:55.636Z,40.75
2023-01-22T15:34:23.880Z,38.13
2023-01-22T15:36:51.207Z,35.63
2023-01-22T15:39:18.094Z,29.42
2023-01-22T15:41:45.302Z,29.67
2023-01-22T15:44:14.151Z,31.27
2023-01-22T15:46:42.413Z,36.72
2023-01-22T15:49:10.497Z,38.70
2023-01-22T15:51:37.345Z,32.42
2023-01-22T15:54:05.722Z,32.45
2023-01-22T15:56:35.770Z,33.78
2023-01-22T15:59:03.796Z,30.85
2023-01-22T16:01:30.951Z,31.27
2023-01-22T16:03:58.110Z,37.65
2023-01-22T16:06:26.804Z,33.47
2023-01-22T16:08:55.508Z,33.78
2023-01-22T16:11:22.430Z,31.80
2023-01-22T16:13:49.591Z,33.75
2023-01-22T16:16:27.811Z,35.50
2023-01-22T16:18:55.027Z,33.15
2023-01-22T16:21:23.112Z,39.72
2023-01-22T16:23:57.053Z,34.83
2023-01-22T16:26:32.881Z,35.97
2023-01-22T16:29:02.107Z,43.70
2023-01-22T16:31:31.664Z,38.55
2023-01-22T16:34:01.588Z,37.35
2023-01-22T16:36:29.908Z,33.88
2023-01-22T16:38:56.814Z,35.83
2023-01-22T16:41:35.632Z,34.65
2023-01-22T16:44:14.895Z,32.88
2023-01-22T16:46:52.510Z,32.60
2023-01-22T16:49:25.180Z,33.40
2023-01-22T16:51:54.561Z,32.90
2023-01-22T16:54:24.558Z,32.30
2023-01-22T16:56:51.350Z,36.70
2023-01-22T16:59:18.661Z,33.38
2023-01-22T17:01:45.928Z,36.67
2023-01-22T17:04:12.967Z,32.35
2023-01-22T17:06:43.775Z,32.85
2023-01-22T17:09:16.433Z,31.88
2023-01-22T17:11:43.777Z,37.95
2023-01-22T17:14:10.826Z,35.15
2023-01-22T17:16:38.521Z,34.38
2023-01-22T17:19:05.839Z,36.75
2023-01-22T17:21:32.758Z,38.38
2023-01-22T17:23:59.549Z,35.55
2023-01-22T17:26:26.570Z,34.33
2023-01-22T17:28:53.830Z,36.75
2023-01-22T17:31:24.704Z,33.60
2023-01-22T17:33:55.785Z,34.85
2023-01-22T17:36:28.343Z,43.60
2023-01-22T17:38:56.587Z,34.50
2023-01-22T17:41:25.360Z,31.02
2023-01-22T17:43:55.852Z,35.90
2023-01-22T17:46:33.175Z,42.00
2023-01-22T17:49:01.739Z,38.55
2023-01-22T17:51:30.120Z,37.00
2023-01-22T17:53:59.492Z,37.88
2023-01-22T17:56:30.715Z,36.78
2023-01-22T17:59:00.176Z,39.20
2023-01-22T18:01:30.297Z,33.92
2023-01-22T18:04:02.930Z,38.65
2023-01-22T18:06:30.553Z,39.55
2023-01-22T18:08:57.998Z,39.08
2023-01-22T18:11:31.353Z,38.65
2023-01-22T18:14:06.594Z,43.15
2023-01-22T18:16:37.793Z,45.45
2023-01-22T18:19:07.361Z,50.33
2023-01-22T18:21:35.191Z,69.07
2023-01-22T18:24:04.592Z,60.92
2023-01-22T18:26:34.631Z,42.35
2023-01-22T18:29:02.176Z,38.35
2023-01-22T18:31:30.217Z,40.63
2023-01-22T18:34:01.787Z,40.78
2023-01-22T18:36:32.680Z,40.28
2023-01-22T18:39:06.126Z,42.00
2023-01-22T18:41:35.420Z,35.53
2023-01-22T18:44:05.071Z,39.78
2023-01-22T18:46:34.603Z,41.65
2023-01-22T18:49:04.333Z,39.20
2023-01-22T18:51:33.293Z,41.35
2023-01-22T18:54:04.938Z,39.38
2023-01-22T18:56:32.343Z,38.95
2023-01-22T18:58:59.776Z,40.60
2023-01-22T19:01:27.935Z,39.40
2023-01-22T19:03:58.316Z,40.78
2023-01-22T19:06:29.302Z,44.70
2023-01-22T19:09:03.850Z,44.50
2023-01-22T19:11:33.519Z,42.35
2023-01-22T19:14:00.954Z,43.30
2023-01-22T19:16:28.515Z,45.03
2023-01-22T19:19:09.624Z,46.17
2023-01-22T19:21:36.480Z,46.25
2023-01-22T19:24:03.548Z,44.97
2023-01-22T19:26:33.193Z,47.13
2023-01-22T19:29:09.264Z,46.47
2023-01-22T19:31:39.148Z,47.45
2023-01-22T19:34:07.186Z,41.72
2023-01-22T19:36:38.166Z,45.55
2023-01-22T19:39:11.575Z,45.00
2023-01-22T19:41:42.937Z,33.10
2023-01-22T19:44:19.582Z,43.47
2023-01-22T19:47:02.323Z,46.17
2023-01-22T19:49:29.894Z,45.20
2023-01-22T19:51:56.828Z,40.70
2023-01-22T19:54:24.755Z,42.08
2023-01-22T19:56:52.090Z,45.17
2023-01-22T19:59:20.807Z,44.67
2023-01-22T20:01:48.982Z,44.55
2023-01-22T20:04:32.464Z,38.40
2023-01-22T20:07:01.912Z,42.50
2023-01-22T20:09:30.602Z,43.78
2023-01-22T20:11:58.317Z,44.65
2023-01-22T20:14:32.400Z,43.22
2023-01-22T20:19:26.717Z,44.88
2023-01-22T20:21:57.911Z,42.05
2023-01-22T20:24:24.796Z,41.60
2023-01-22T20:26:55.001Z,40.53
2023-01-22T20:29:21.914Z,47.72
2023-01-22T20:31:52.134Z,41.83
2023-01-22T20:34:19.048Z,47.25
2023-01-22T20:36:45.881Z,46.05
2023-01-22T20:39:13.449Z,42.65
2023-01-22T20:41:40.328Z,52.60
2023-01-22T20:44:07.352Z,49.25
2023-01-22T20:46:36.144Z,57.15
2023-01-22T20:49:23.141Z,51.50
2023-01-22T20:51:50.083Z,67.82
2023-01-22T20:54:18.582Z,45.03
2023-01-22T20:56:46.452Z,43.38
2023-01-22T20:59:18.347Z,41.50
2023-01-22T21:01:45.712Z,43.92
2023-01-22T21:04:13.433Z,43.22
2023-01-22T21:06:40.600Z,46.40
2023-01-22T21:09:08.532Z,38.92
2023-01-22T21:11:37.182Z,45.95
2023-01-22T21:14:05.410Z,45.40
2023-01-22T21:16:35.228Z,47.10
2023-01-22T21:19:05.621Z,44.75
2023-01-22T21:21:34.931Z,43.33
2023-01-22T21:24:02.331Z,40.75
2023-01-22T21:26:31.928Z,42.58
2023-01-22T21:29:02.488Z,42.90
2023-01-22T21:31:29.724Z,44.55
2023-01-22T21:34:02.864Z,42.30
2023-01-22T21:36:38.398Z,37.13
2023-01-22T21:39:08.018Z,47.85
2023-01-22T21:41:35.400Z,44.95
2023-01-22T21:44:21.056Z,46.10
2023-01-22T21:46:48.612Z,42.03
2023-01-22T21:49:24.603Z,47.42
2023-01-22T21:52:01.453Z,48.97
2023-01-22T21:54:41.294Z,49.30
2023-01-22T21:57:13.398Z,47.13
2023-01-22T21:59:40.824Z,48.20
2023-01-22T22:02:11.868Z,46.67
2023-01-22T22:04:38.819Z,43.80
2023-01-22T22:07:05.631Z,48.80
2023-01-22T22:09:33.546Z,47.30
2023-01-22T22:12:01.668Z,49.22
2023-01-22T22:14:29.625Z,42.72
2023-01-22T22:16:56.876Z,48.35
2023-01-22T22:19:24.316Z,45.60
2023-01-22T22:21:51.575Z,45.35
2023-01-22T22:24:20.177Z,44.50
2023-01-22T22:26:47.315Z,46.92
2023-01-22T22:29:15.177Z,46.33
2023-01-22T22:31:42.180Z,44.60
2023-01-22T22:34:09.238Z,43.55
2023-01-22T22:36:36.245Z,45.78
2023-01-22T22:39:06.613Z,43.85
2023-01-22T22:41:36.173Z,46.88
2023-01-22T22:44:03.378Z,44.88
2023-01-22T22:46:32.631Z,46.65
2023-01-22T22:49:01.072Z,50.97
2023-01-22T22:51:35.686Z,45.70
2023-01-22T22:54:18.517Z,53.97
2023-01-22T22:56:48.247Z,57.17
2023-01-22T22:59:16.100Z,49.15
2023-01-22T23:01:43.221Z,49.28
2023-01-22T23:04:12.003Z,54.20
2023-01-22T23:06:38.895Z,51.42
2023-01-22T23:09:06.761Z,51.53
2023-01-22T23:11:35.199Z,56.40
2023-01-22T23:14:03.638Z,52.33
2023-01-22T23:16:33.975Z,53.03
2023-01-22T23:19:03.659Z,55.45
2023-01-22T23:21:31.207Z,56.13
2023-01-22T23:23:58.042Z,56.03
2023-01-22T23:26:30.024Z,54.67
2023-01-22T23:29:02.230Z,53.17
2023-01-22T23:31:34.318Z,48.05
2023-01-22T23:34:03.552Z,51.60
2023-01-22T23:36:31.680Z,50.47
2023-01-22T23:38:58.699Z,53.50
2023-01-22T23:41:28.679Z,53.83
2023-01-22T23:43:55.735Z,57.85
2023-01-22T23:46:28.483Z,59.33
2023-01-22T23:48:58.098Z,57.95
2023-01-22T23:51:26.011Z,51.83
2023-01-22T23:53:53.382Z,55.65
2023-01-22T23:56:22.609Z,57.50
2023-01-22T23:58:49.469Z,55.92
